createdAt,value
2023-04-03T00:01:57.578Z,3.6
2023-04-03T00:07:49.283Z,3.5
2023-04-03T00:13:40.408Z,3.4
2023-04-03T00:19:32.600Z,3.3
2023-04-03T00:25:24.511Z,3.1
2023-04-03T00:31:15.926Z,2.9
2023-04-03T00:36:52.578Z,2.8
2023-04-03T00:42:44.183Z,2.7
2023-04-03T00:48:20.857Z,2.6
2023-04-03T00:53:56.068Z,2.4
2023-04-03T00:59:47.742Z,2.3
2023-04-03T01:05:40.401Z,2.2
2023-04-03T01:11:31.678Z,2.1
2023-04-03T01:17:23.608Z,1.9
2023-04-03T01:23:14.313Z,1.8
2023-04-03T01:29:05.884Z,1.7
2023-04-03T01:34:57.777Z,1.6
2023-04-03T01:40:48.853Z,1.6
2023-04-03T01:46:39.910Z,1.6
2023-04-03T01:52:31.904Z,1.5
2023-04-03T01:58:23.229Z,1.5
2023-04-03T02:04:14.983Z,1.4
2023-04-03T02:10:08.958Z,1.4
2023-04-03T02:16:00.987Z,1.4
2023-04-03T02:21:52.020Z,1.3
2023-04-03T02:27:43.349Z,1.3
2023-04-03T02:33:19.030Z,1.2
2023-04-03T02:39:10.265Z,1.1
2023-04-03T02:45:02.048Z,1.1
2023-04-03T02:50:54.195Z,1
2023-04-03T02:56:45.293Z,1
2023-04-03T03:02:39.274Z,1
2023-04-03T03:08:15.304Z,0.9
2023-04-03T03:14:05.959Z,0.9
2023-04-03T03:19:58.151Z,0.8
2023-04-03T03:25:49.150Z,0.8
2023-04-03T03:31:40.571Z,0.7
2023-04-03T03:37:32.665Z,0.7
2023-04-03T03:43:24.381Z,0.6
2023-04-03T03:49:02.323Z,0.6
2023-04-03T03:54:38.462Z,0.5
2023-04-03T04:00:29.591Z,0.4
2023-04-03T04:06:23.280Z,0.4
2023-04-03T04:12:14.396Z,0.3
2023-04-03T04:17:50.269Z,0.2
2023-04-03T04:23:25.246Z,0.2
2023-04-03T04:29:16.667Z,0.1
2023-04-03T04:35:07.616Z,0.2
2023-04-03T04:40:59.736Z,0.2
2023-04-03T04:46:51.412Z,0.3
2023-04-03T04:52:51.754Z,0.3
2023-04-03T04:58:43.560Z,0.4
2023-04-03T05:04:36.579Z,0.4
2023-04-03T05:10:13.475Z,0.6
2023-04-03T05:16:03.939Z,0.8
2023-04-03T05:21:55.762Z,1
2023-04-03T05:27:46.989Z,1.3
2023-04-03T05:33:40.075Z,1.8
2023-04-03T05:39:34.025Z,2.4
2023-04-03T05:45:25.739Z,3.1
2023-04-03T05:51:19.521Z,3.9
2023-04-03T05:57:12.348Z,5.2
2023-04-03T06:03:04.510Z,6.9
2023-04-03T06:08:59.570Z,8.1
2023-04-03T06:14:52.167Z,9.3
2023-04-03T06:20:43.485Z,10.6
2023-04-03T06:26:34.438Z,11.9
2023-04-03T06:32:26.486Z,13.3
2023-04-03T06:38:20.305Z,14.8
2023-04-03T06:44:12.840Z,16.2
2023-04-03T06:50:05.187Z,17.5
2023-04-03T06:55:57.631Z,18.6
2023-04-03T07:01:50.191Z,19.8
2023-04-03T07:07:42.725Z,20.8
2023-04-03T07:13:33.781Z,21.8
2023-04-03T07:19:25.324Z,22.7
2023-04-03T07:25:23.692Z,23.7
2023-04-03T07:31:14.952Z,25.2
2023-04-03T07:37:07.080Z,27.8
2023-04-03T07:42:58.746Z,30.7
2023-04-03T07:48:50.261Z,33.1
2023-04-03T07:54:25.938Z,37
2023-04-03T08:00:04.506Z,34.7
2023-04-03T08:05:58.151Z,33.4
2023-04-03T08:12:03.641Z,32.8
2023-04-03T08:17:56.496Z,32.4
2023-04-03T08:23:39.421Z,32.4
2023-04-03T08:29:44.054Z,33
2023-04-03T08:35:20.841Z,34.3
2023-04-03T08:41:13.430Z,43
2023-04-03T08:47:05.783Z,41.3
2023-04-03T08:53:04.766Z,39.9
2023-04-03T08:58:57.038Z,38.9
2023-04-03T09:04:50.436Z,38.3
2023-04-03T09:10:43.060Z,38.1
2023-04-03T09:16:48.896Z,38.7
2023-04-03T09:22:45.557Z,39
2023-04-03T09:28:47.168Z,40.4
2023-04-03T09:34:41.741Z,39.8
2023-04-03T09:40:34.215Z,38.8
2023-04-03T09:46:37.338Z,38.5
2023-04-03T09:52:39.328Z,40.2
2023-04-03T09:58:39.385Z,41.3
2023-04-03T10:04:36.690Z,41.8
2023-04-03T10:10:52.690Z,42.2
2023-04-03T10:16:57.171Z,41.9
2023-04-03T10:23:11.285Z,41.5
2023-04-03T10:29:05.763Z,41
2023-04-03T10:35:05.276Z,40.5
2023-04-03T10:40:58.455Z,40
2023-04-03T10:47:04.012Z,39.8
2023-04-03T10:52:49.728Z,39.6
2023-04-03T10:58:54.788Z,39.3
2023-04-03T11:04:50.216Z,39.1
2023-04-03T11:10:27.666Z,38.8
2023-04-03T11:16:05.256Z,38.4
2023-04-03T11:21:55.112Z,37.9
2023-04-03T11:27:46.559Z,37.1
2023-04-03T11:33:32.653Z,35.2
2023-04-03T11:39:26.301Z,32.9
2023-04-03T11:45:16.992Z,30.9
2023-04-03T11:51:40.929Z,29
2023-04-03T11:58:09.981Z,27.3
2023-04-03T12:04:53.073Z,25.8
2023-04-03T12:11:15.876Z,24.4
2023-04-03T12:17:40.297Z,23.2
2023-04-03T12:24:12.841Z,22.1
2023-04-03T12:36:52.816Z,20.4
2023-04-03T12:43:24.000Z,19.6
2023-04-03T12:49:52.218Z,18.8
2023-04-03T12:56:02.346Z,18.1
2023-04-03T13:02:25.956Z,17.4
2023-04-03T13:08:52.383Z,16.8
2023-04-03T13:15:25.835Z,16.1
2023-04-03T13:21:55.525Z,15.5
2023-04-03T13:28:26.642Z,14.9
2023-04-03T13:34:15.374Z,14.4
2023-04-03T13:40:04.785Z,14
2023-04-03T13:45:56.570Z,13.6
2023-04-03T13:51:49.590Z,13.3
2023-04-03T13:57:40.071Z,12.9
2023-04-03T14:03:00.727Z,12.7
2023-04-03T14:08:45.778Z,12.4
2023-04-03T14:14:32.384Z,12.1
2023-04-03T14:20:16.630Z,11.9
2023-04-03T14:25:53.768Z,11.6
2023-04-03T14:31:30.449Z,11.4
2023-04-03T14:37:17.856Z,11.2
2023-04-03T14:43:00.958Z,10.9
2023-04-03T14:49:03.854Z,10.8
2023-04-03T14:55:02.925Z,10.6
2023-04-03T15:00:39.898Z,10.4
2023-04-03T15:06:20.555Z,10.2
2023-04-03T15:11:56.576Z,10.1
2023-04-03T15:17:52.334Z,9.9
2023-04-03T15:23:13.957Z,9.8
2023-04-03T15:28:34.569Z,9.6
2023-04-03T15:34:15.155Z,9.5
2023-04-03T15:40:13.472Z,9.3
2023-04-03T15:45:49.278Z,9.3
2023-04-03T15:51:25.494Z,9.1
2023-04-03T15:57:17.213Z,9.1
2023-04-03T16:02:54.464Z,8.9
2023-04-03T16:08:32.570Z,8.8
2023-04-03T16:14:08.858Z,8.8
2023-04-03T16:19:45.495Z,8.6
2023-04-03T16:25:22.133Z,8.6
2023-04-03T16:31:00.094Z,8.4
2023-04-03T16:36:55.298Z,8.3
2023-04-03T16:42:37.292Z,8.3
2023-04-03T16:48:33.535Z,8.1
2023-04-03T16:54:27.265Z,8.1
2023-04-03T17:00:08.550Z,7.9
2023-04-03T17:06:05.039Z,7.9
2023-04-03T17:12:04.045Z,7.8
2023-04-03T17:17:59.514Z,7.7
2023-04-03T17:23:53.712Z,7.6
2023-04-03T17:29:47.359Z,7.6
2023-04-03T17:35:29.845Z,7.5
2023-04-03T17:41:26.964Z,7.4
2023-04-03T17:47:25.136Z,7.4
2023-04-03T17:53:24.194Z,7.3
2023-04-03T17:59:23.193Z,7.3
2023-04-03T18:05:07.260Z,7.2
2023-04-03T18:11:06.843Z,7.1
2023-04-03T18:16:49.697Z,7.1
2023-04-03T18:23:07.561Z,7.1
2023-04-03T18:29:11.859Z,7
2023-04-03T18:35:13.265Z,6.9
2023-04-03T18:41:13.192Z,6.9
2023-04-03T18:46:58.529Z,6.9
2023-04-03T18:52:58.550Z,6.9
2023-04-03T18:58:59.315Z,6.8
2023-04-03T19:05:00.934Z,6.8
2023-04-03T19:11:01.107Z,6.8
2023-04-03T19:17:26.347Z,6.8
2023-04-03T19:23:27.683Z,6.7
2023-04-03T19:29:28.317Z,6.7
2023-04-03T19:35:27.835Z,6.7
2023-04-03T19:41:24.064Z,6.6
2023-04-03T19:47:28.413Z,6.6
2023-04-03T19:53:20.285Z,6.6
2023-04-03T19:59:12.014Z,6.6
2023-04-03T20:05:19.785Z,6.6
2023-04-03T20:11:12.104Z,6.6
2023-04-03T20:17:05.420Z,6.5
2023-04-03T20:22:43.820Z,6.5
2023-04-03T20:29:23.795Z,6.5
2023-04-03T20:34:57.337Z,6.5
2023-04-03T20:40:51.532Z,6.5
2023-04-03T20:46:54.658Z,6.4
2023-04-03T20:52:47.577Z,6.4
2023-04-03T20:58:48.517Z,6.4
2023-04-03T21:04:30.225Z,6.4
2023-04-03T21:10:24.606Z,6.4
2023-04-03T21:16:16.059Z,6.4
2023-04-03T21:22:08.186Z,6.4
2023-04-03T21:28:00.391Z,6.4
2023-04-03T21:33:52.857Z,6.4
2023-04-03T21:39:28.883Z,6.4
2023-04-03T21:45:20.491Z,6.4
2023-04-03T21:51:14.338Z,6.4
2023-04-03T21:57:05.384Z,6.3
2023-04-03T22:03:09.777Z,6.3
2023-04-03T22:09:01.061Z,6.3
2023-04-03T22:14:37.972Z,6.3
2023-04-03T22:20:29.644Z,6.3
2023-04-03T22:26:21.140Z,6.3
2023-04-03T22:32:12.560Z,6.3
2023-04-03T22:37:48.885Z,6.3
2023-04-03T22:43:24.565Z,6.3
2023-04-03T22:49:21.438Z,6.3
2023-04-03T22:55:19.238Z,6.3
2023-04-03T23:00:55.774Z,6.3
2023-04-03T23:06:48.026Z,6.3
2023-04-03T23:12:24.788Z,6.3
2023-04-03T23:18:01.460Z,6.3
2023-04-03T23:23:53.224Z,6.3
2023-04-03T23:29:44.703Z,6.3
2023-04-03T23:35:21.076Z,6.3
2023-04-03T23:41:12.870Z,6.3
2023-04-03T23:46:51.451Z,6.3
2023-04-03T23:52:28.139Z,6.3
2023-04-03T23:58:19.532Z,6.3
